sensor_id;sensor_type;location;lat;lon;timestamp;pressure;altitude;pressure_sealevel;temperature;humidity
70302;BME280;57706;56.326;43.882;2022-07-06T00:00:05;100694.97;;;16.87;57.97
70302;BME280;57706;56.326;43.882;2022-07-06T00:02:31;100695.44;;;16.97;58.00
70302;BME280;57706;56.326;43.882;2022-07-06T00:04:57;100687.81;;;17.16;57.58
70302;BME280;57706;56.326;43.882;2022-07-06T00:07:23;100693.03;;;17.02;57.95
70302;BME280;57706;56.326;43.882;2022-07-06T00:09:49;100690.22;;;17.17;57.60
70302;BME280;57706;56.326;43.882;2022-07-06T00:12:15;100697.16;;;17.12;57.83
70302;BME280;57706;56.326;43.882;2022-07-06T00:14:41;100687.56;;;17.11;57.83
70302;BME280;57706;56.326;43.882;2022-07-06T00:17:07;100688.16;;;17.06;57.88
70302;BME280;57706;56.326;43.882;2022-07-06T00:19:33;100690.13;;;16.97;58.27
70302;BME280;57706;56.326;43.882;2022-07-06T00:21:59;100679.38;;;17.05;57.85
70302;BME280;57706;56.326;43.882;2022-07-06T00:24:25;100695.06;;;17.00;58.09
70302;BME280;57706;56.326;43.882;2022-07-06T00:26:50;100697.09;;;16.98;58.35
70302;BME280;57706;56.326;43.882;2022-07-06T00:29:35;100697.25;;;16.90;58.54
70302;BME280;57706;56.326;43.882;2022-07-06T00:32:01;100698.53;;;17.01;58.04
70302;BME280;57706;56.326;43.882;2022-07-06T00:34:27;100691.78;;;16.98;58.30
70302;BME280;57706;56.326;43.882;2022-07-06T00:36:54;100691.69;;;17.20;57.64
70302;BME280;57706;56.326;43.882;2022-07-06T00:39:19;100693.97;;;17.37;57.17
70302;BME280;57706;56.326;43.882;2022-07-06T00:41:48;100695.19;;;17.27;57.77
70302;BME280;57706;56.326;43.882;2022-07-06T00:44:14;100698.06;;;17.32;57.27
70302;BME280;57706;56.326;43.882;2022-07-06T00:46:40;100700.66;;;17.19;57.55
70302;BME280;57706;56.326;43.882;2022-07-06T00:49:06;100700.84;;;17.11;58.04
70302;BME280;57706;56.326;43.882;2022-07-06T00:51:52;100697.00;;;17.20;57.80
70302;BME280;57706;56.326;43.882;2022-07-06T00:54:18;100698.00;;;17.19;57.68
70302;BME280;57706;56.326;43.882;2022-07-06T00:56:44;100698.25;;;17.24;57.60
70302;BME280;57706;56.326;43.882;2022-07-06T00:59:10;100708.06;;;17.30;57.42
70302;BME280;57706;56.326;43.882;2022-07-06T01:01:36;100704.00;;;17.34;57.50
70302;BME280;57706;56.326;43.882;2022-07-06T01:04:02;100698.69;;;17.34;57.58
70302;BME280;57706;56.326;43.882;2022-07-06T01:06:28;100696.44;;;17.31;57.78
70302;BME280;57706;56.326;43.882;2022-07-06T01:09:12;100704.03;;;17.48;57.48
70302;BME280;57706;56.326;43.882;2022-07-06T01:11:39;100706.94;;;17.67;56.70
70302;BME280;57706;56.326;43.882;2022-07-06T01:14:05;100698.53;;;17.70;56.46
70302;BME280;57706;56.326;43.882;2022-07-06T01:16:31;100693.25;;;17.83;56.18
70302;BME280;57706;56.326;43.882;2022-07-06T01:18:57;100689.53;;;17.71;56.25
70302;BME280;57706;56.326;43.882;2022-07-06T01:21:23;100694.06;;;17.77;56.00
70302;BME280;57706;56.326;43.882;2022-07-06T01:23:49;100695.50;;;17.86;55.46
70302;BME280;57706;56.326;43.882;2022-07-06T01:26:19;100693.03;;;17.78;55.79
70302;BME280;57706;56.326;43.882;2022-07-06T01:28:50;100686.69;;;17.66;56.46
70302;BME280;57706;56.326;43.882;2022-07-06T01:31:22;100687.09;;;17.76;55.84
70302;BME280;57706;56.326;43.882;2022-07-06T01:33:52;100695.28;;;17.95;55.45
70302;BME280;57706;56.326;43.882;2022-07-06T01:36:18;100691.19;;;17.85;55.62
70302;BME280;57706;56.326;43.882;2022-07-06T01:38:52;100692.84;;;17.73;56.02
70302;BME280;57706;56.326;43.882;2022-07-06T01:41:18;100691.19;;;17.72;56.04
70302;BME280;57706;56.326;43.882;2022-07-06T01:43:45;100689.13;;;17.60;56.49
70302;BME280;57706;56.326;43.882;2022-07-06T01:46:12;100684.25;;;17.84;55.74
70302;BME280;57706;56.326;43.882;2022-07-06T01:48:39;100689.59;;;18.11;54.76
70302;BME280;57706;56.326;43.882;2022-07-06T01:51:05;100693.69;;;18.07;55.04
70302;BME280;57706;56.326;43.882;2022-07-06T01:53:33;100699.81;;;18.08;55.10
70302;BME280;57706;56.326;43.882;2022-07-06T01:55:59;100693.25;;;17.97;55.59
70302;BME280;57706;56.326;43.882;2022-07-06T01:58:26;100683.00;;;18.00;55.74
70302;BME280;57706;56.326;43.882;2022-07-06T02:01:13;100678.13;;;18.04;55.40
70302;BME280;57706;56.326;43.882;2022-07-06T02:03:40;100692.06;;;18.06;55.67
70302;BME280;57706;56.326;43.882;2022-07-06T02:06:08;100691.66;;;18.23;55.01
70302;BME280;57706;56.326;43.882;2022-07-06T02:08:34;100681.41;;;18.33;54.66
70302;BME280;57706;56.326;43.882;2022-07-06T02:11:19;100688.16;;;18.29;54.81
70302;BME280;57706;56.326;43.882;2022-07-06T02:13:45;100678.53;;;18.35;54.88
70302;BME280;57706;56.326;43.882;2022-07-06T02:16:31;100685.28;;;18.30;55.05
70302;BME280;57706;56.326;43.882;2022-07-06T02:18:57;100678.91;;;18.52;54.25
70302;BME280;57706;56.326;43.882;2022-07-06T02:21:23;100678.88;;;18.65;53.79
70302;BME280;57706;56.326;43.882;2022-07-06T02:23:49;100680.50;;;18.66;53.66
70302;BME280;57706;56.326;43.882;2022-07-06T02:26:16;100691.16;;;18.66;54.05
70302;BME280;57706;56.326;43.882;2022-07-06T02:28:43;100687.47;;;18.67;54.29
70302;BME280;57706;56.326;43.882;2022-07-06T02:31:11;100690.13;;;18.67;54.50
70302;BME280;57706;56.326;43.882;2022-07-06T02:33:39;100694.41;;;18.68;54.49
70302;BME280;57706;56.326;43.882;2022-07-06T02:36:23;100687.44;;;18.81;53.99
70302;BME280;57706;56.326;43.882;2022-07-06T02:38:49;100691.97;;;18.74;54.23
70302;BME280;57706;56.326;43.882;2022-07-06T02:41:15;100683.50;;;18.83;54.20
70302;BME280;57706;56.326;43.882;2022-07-06T02:43:41;100688.00;;;19.03;53.67
70302;BME280;57706;56.326;43.882;2022-07-06T02:46:08;100685.69;;;19.14;53.30
70302;BME280;57706;56.326;43.882;2022-07-06T02:48:34;100688.31;;;19.20;53.09
70302;BME280;57706;56.326;43.882;2022-07-06T02:51:00;100677.97;;;19.37;52.84
70302;BME280;57706;56.326;43.882;2022-07-06T02:53:28;100684.75;;;19.33;52.53
70302;BME280;57706;56.326;43.882;2022-07-06T02:55:55;100676.91;;;19.45;52.34
70302;BME280;57706;56.326;43.882;2022-07-06T02:58:20;100680.22;;;19.40;52.30
70302;BME280;57706;56.326;43.882;2022-07-06T03:01:05;100687.09;;;19.55;51.70
70302;BME280;57706;56.326;43.882;2022-07-06T03:03:32;100681.44;;;19.70;51.33
70302;BME280;57706;56.326;43.882;2022-07-06T03:05:59;100683.69;;;19.73;51.20
70302;BME280;57706;56.326;43.882;2022-07-06T03:08:43;100685.28;;;19.81;50.98
70302;BME280;57706;56.326;43.882;2022-07-06T03:11:09;100692.41;;;19.87;51.01
70302;BME280;57706;56.326;43.882;2022-07-06T03:13:37;100689.72;;;19.94;50.93
70302;BME280;57706;56.326;43.882;2022-07-06T03:16:04;100692.28;;;20.07;50.64
70302;BME280;57706;56.326;43.882;2022-07-06T03:18:30;100683.69;;;20.05;50.63
70302;BME280;57706;56.326;43.882;2022-07-06T03:20:56;100684.66;;;20.11;50.69
70302;BME280;57706;56.326;43.882;2022-07-06T03:23:22;100688.88;;;20.19;50.31
70302;BME280;57706;56.326;43.882;2022-07-06T03:25:48;100687.72;;;20.33;49.74
70302;BME280;57706;56.326;43.882;2022-07-06T03:28:15;100681.03;;;20.24;49.87
70302;BME280;57706;56.326;43.882;2022-07-06T03:30:41;100685.13;;;20.27;49.37
70302;BME280;57706;56.326;43.882;2022-07-06T03:33:07;100677.16;;;20.20;49.61
70302;BME280;57706;56.326;43.882;2022-07-06T03:35:33;100684.88;;;20.28;49.49
70302;BME280;57706;56.326;43.882;2022-07-06T03:38:01;100682.56;;;20.13;49.99
70302;BME280;57706;56.326;43.882;2022-07-06T03:40:30;100683.53;;;20.19;50.26
70302;BME280;57706;56.326;43.882;2022-07-06T03:42:55;100682.88;;;20.24;50.38
70302;BME280;57706;56.326;43.882;2022-07-06T03:45:24;100687.84;;;20.20;50.45
70302;BME280;57706;56.326;43.882;2022-07-06T03:47:50;100685.06;;;20.08;51.00
70302;BME280;57706;56.326;43.882;2022-07-06T03:50:16;100679.03;;;19.94;50.96
70302;BME280;57706;56.326;43.882;2022-07-06T03:52:42;100676.28;;;20.07;50.60
70302;BME280;57706;56.326;43.882;2022-07-06T03:55:10;100684.69;;;20.04;50.73
70302;BME280;57706;56.326;43.882;2022-07-06T03:57:57;100681.03;;;20.24;50.06
70302;BME280;57706;56.326;43.882;2022-07-06T04:00:41;100676.75;;;20.23;50.38
70302;BME280;57706;56.326;43.882;2022-07-06T04:03:12;100676.38;;;20.38;50.09
70302;BME280;57706;56.326;43.882;2022-07-06T04:05:44;100671.88;;;20.39;50.18
70302;BME280;57706;56.326;43.882;2022-07-06T04:08:11;100667.41;;;20.32;50.62
70302;BME280;57706;56.326;43.882;2022-07-06T04:10:42;100670.91;;;20.52;49.98
70302;BME280;57706;56.326;43.882;2022-07-06T04:13:08;100668.00;;;20.53;50.15
70302;BME280;57706;56.326;43.882;2022-07-06T04:15:35;100661.94;;;20.65;50.04
70302;BME280;57706;56.326;43.882;2022-07-06T04:18:01;100665.06;;;20.80;50.10
70302;BME280;57706;56.326;43.882;2022-07-06T04:20:32;100672.81;;;20.82;50.23
70302;BME280;57706;56.326;43.882;2022-07-06T04:22:58;100670.34;;;20.87;50.14
70302;BME280;57706;56.326;43.882;2022-07-06T04:25:25;100672.88;;;21.12;49.55
70302;BME280;57706;56.326;43.882;2022-07-06T04:27:53;100667.00;;;21.22;49.22
70302;BME280;57706;56.326;43.882;2022-07-06T04:30:19;100659.50;;;21.12;49.82
70302;BME280;57706;56.326;43.882;2022-07-06T04:32:46;100666.91;;;21.29;49.11
70302;BME280;57706;56.326;43.882;2022-07-06T04:35:13;100658.56;;;21.37;49.27
70302;BME280;57706;56.326;43.882;2022-07-06T04:37:40;100666.63;;;21.61;48.32
70302;BME280;57706;56.326;43.882;2022-07-06T04:40:06;100666.06;;;21.59;48.59
70302;BME280;57706;56.326;43.882;2022-07-06T04:42:32;100651.34;;;21.80;48.14
70302;BME280;57706;56.326;43.882;2022-07-06T04:44:58;100660.66;;;21.90;48.34
70302;BME280;57706;56.326;43.882;2022-07-06T04:47:24;100650.78;;;21.90;48.09
70302;BME280;57706;56.326;43.882;2022-07-06T04:49:50;100650.78;;;21.90;48.25
70302;BME280;57706;56.326;43.882;2022-07-06T04:52:17;100654.75;;;21.99;48.46
70302;BME280;57706;56.326;43.882;2022-07-06T04:54:43;100658.00;;;22.13;47.52
70302;BME280;57706;56.326;43.882;2022-07-06T04:57:08;100648.44;;;22.30;48.12
70302;BME280;57706;56.326;43.882;2022-07-06T04:59:35;100653.47;;;22.50;47.85
70302;BME280;57706;56.326;43.882;2022-07-06T05:02:01;100649.09;;;22.61;47.43
70302;BME280;57706;56.326;43.882;2022-07-06T05:04:28;100651.88;;;22.66;46.93
70302;BME280;57706;56.326;43.882;2022-07-06T05:06:55;100650.66;;;22.86;46.63
70302;BME280;57706;56.326;43.882;2022-07-06T05:09:21;100648.28;;;23.01;46.36
70302;BME280;57706;56.326;43.882;2022-07-06T05:11:48;100639.94;;;23.15;46.41
70302;BME280;57706;56.326;43.882;2022-07-06T05:14:14;100634.63;;;23.32;46.12
70302;BME280;57706;56.326;43.882;2022-07-06T05:16:40;100633.50;;;23.45;45.73
70302;BME280;57706;56.326;43.882;2022-07-06T05:19:07;100633.03;;;23.48;45.96
70302;BME280;57706;56.326;43.882;2022-07-06T05:21:33;100634.91;;;23.64;45.59
70302;BME280;57706;56.326;43.882;2022-07-06T05:24:00;100639.34;;;23.93;45.05
70302;BME280;57706;56.326;43.882;2022-07-06T05:26:26;100632.91;;;23.94;45.15
70302;BME280;57706;56.326;43.882;2022-07-06T05:28:53;100628.88;;;24.09;44.72
70302;BME280;57706;56.326;43.882;2022-07-06T05:31:21;100625.25;;;24.03;44.51
70302;BME280;57706;56.326;43.882;2022-07-06T05:34:05;100628.75;;;24.21;44.64
70302;BME280;57706;56.326;43.882;2022-07-06T05:36:32;100623.88;;;24.17;45.07
70302;BME280;57706;56.326;43.882;2022-07-06T05:38:58;100624.63;;;24.13;44.40
70302;BME280;57706;56.326;43.882;2022-07-06T05:41:24;100622.75;;;24.13;44.66
70302;BME280;57706;56.326;43.882;2022-07-06T05:43:50;100610.56;;;24.28;44.20
70302;BME280;57706;56.326;43.882;2022-07-06T05:46:16;100620.94;;;24.41;43.92
70302;BME280;57706;56.326;43.882;2022-07-06T05:48:42;100620.59;;;24.55;43.55
70302;BME280;57706;56.326;43.882;2022-07-06T05:51:26;100611.31;;;24.90;43.01
70302;BME280;57706;56.326;43.882;2022-07-06T05:53:53;100622.16;;;25.61;41.47
70302;BME280;57706;56.326;43.882;2022-07-06T05:56:37;100611.97;;;27.99;36.67
70302;BME280;57706;56.326;43.882;2022-07-06T05:59:04;100606.94;;;31.46;31.36
70302;BME280;57706;56.326;43.882;2022-07-06T06:01:31;100605.31;;;32.57;29.46
70302;BME280;57706;56.326;43.882;2022-07-06T06:04:11;100595.34;;;34.86;26.67
70302;BME280;57706;56.326;43.882;2022-07-06T06:06:37;100594.16;;;35.71;25.14
70302;BME280;57706;56.326;43.882;2022-07-06T06:09:03;100597.50;;;35.76;24.55
70302;BME280;57706;56.326;43.882;2022-07-06T06:11:29;100596.28;;;37.01;23.48
70302;BME280;57706;56.326;43.882;2022-07-06T06:13:55;100590.06;;;34.72;25.40
70302;BME280;57706;56.326;43.882;2022-07-06T06:16:21;100584.03;;;32.08;29.27
70302;BME280;57706;56.326;43.882;2022-07-06T06:18:47;100598.81;;;30.36;32.63
70302;BME280;57706;56.326;43.882;2022-07-06T06:21:13;100593.41;;;29.87;33.03
70302;BME280;57706;56.326;43.882;2022-07-06T06:23:39;100598.50;;;29.35;33.51
70302;BME280;57706;56.326;43.882;2022-07-06T06:26:05;100602.47;;;28.68;34.99
70302;BME280;57706;56.326;43.882;2022-07-06T06:28:31;100594.00;;;28.35;36.44
70302;BME280;57706;56.326;43.882;2022-07-06T06:30:57;100593.06;;;27.99;36.74
70302;BME280;57706;56.326;43.882;2022-07-06T06:33:23;100588.22;;;27.96;37.11
70302;BME280;57706;56.326;43.882;2022-07-06T06:35:52;100592.31;;;28.54;36.37
70302;BME280;57706;56.326;43.882;2022-07-06T06:38:20;100597.84;;;31.84;31.16
70302;BME280;57706;56.326;43.882;2022-07-06T06:40:47;100598.72;;;35.49;26.04
70302;BME280;57706;56.326;43.882;2022-07-06T06:43:13;100588.72;;;37.19;24.20
70302;BME280;57706;56.326;43.882;2022-07-06T06:46:15;100586.25;;;39.32;21.78
70302;BME280;57706;56.326;43.882;2022-07-06T06:48:41;100579.84;;;40.31;20.97
70302;BME280;57706;56.326;43.882;2022-07-06T06:51:06;100572.75;;;40.50;20.53
70302;BME280;57706;56.326;43.882;2022-07-06T06:53:32;100579.53;;;40.17;20.79
70302;BME280;57706;56.326;43.882;2022-07-06T06:55:58;100579.94;;;41.75;19.47
70302;BME280;57706;56.326;43.882;2022-07-06T06:58:24;100581.88;;;42.02;18.99
70302;BME280;57706;56.326;43.882;2022-07-06T07:00:50;100578.81;;;42.07;18.90
70302;BME280;57706;56.326;43.882;2022-07-06T07:03:16;100581.34;;;42.19;18.91
70302;BME280;57706;56.326;43.882;2022-07-06T07:05:42;100568.56;;;42.79;18.15
70302;BME280;57706;56.326;43.882;2022-07-06T07:08:08;100571.22;;;44.77;16.67
70302;BME280;57706;56.326;43.882;2022-07-06T07:10:34;100560.00;;;45.78;16.39
70302;BME280;57706;56.326;43.882;2022-07-06T07:12:59;100567.06;;;46.09;15.74
70302;BME280;57706;56.326;43.882;2022-07-06T07:15:26;100574.06;;;48.07;14.49
70302;BME280;57706;56.326;43.882;2022-07-06T07:17:52;100561.44;;;49.49;13.72
70302;BME280;57706;56.326;43.882;2022-07-06T07:20:18;100562.00;;;50.01;13.02
70302;BME280;57706;56.326;43.882;2022-07-06T07:22:43;100560.22;;;49.06;13.48
70302;BME280;57706;56.326;43.882;2022-07-06T07:25:09;100544.22;;;45.61;16.08
70302;BME280;57706;56.326;43.882;2022-07-06T07:27:36;100547.50;;;44.87;16.58
70302;BME280;57706;56.326;43.882;2022-07-06T07:30:03;100548.63;;;46.44;16.00
70302;BME280;57706;56.326;43.882;2022-07-06T07:32:49;100552.47;;;47.10;15.43
70302;BME280;57706;56.326;43.882;2022-07-06T07:35:33;100546.88;;;46.01;15.78
70302;BME280;57706;56.326;43.882;2022-07-06T07:37:59;100541.56;;;42.62;18.74
70302;BME280;57706;56.326;43.882;2022-07-06T07:40:25;100543.22;;;41.40;19.83
70302;BME280;57706;56.326;43.882;2022-07-06T07:42:50;100536.63;;;43.31;18.67
70302;BME280;57706;56.326;43.882;2022-07-06T07:45:16;100538.44;;;46.26;15.78
70302;BME280;57706;56.326;43.882;2022-07-06T07:47:42;100531.34;;;48.48;14.01
70302;BME280;57706;56.326;43.882;2022-07-06T07:50:09;100535.94;;;51.20;12.60
70302;BME280;57706;56.326;43.882;2022-07-06T07:52:35;100539.47;;;51.08;12.22
70302;BME280;57706;56.326;43.882;2022-07-06T07:55:00;100527.06;;;47.50;14.73
70302;BME280;57706;56.326;43.882;2022-07-06T07:57:28;100524.13;;;44.84;16.61
70302;BME280;57706;56.326;43.882;2022-07-06T07:59:54;100529.75;;;42.23;18.70
70302;BME280;57706;56.326;43.882;2022-07-06T08:02:20;100535.69;;;41.95;19.18
70302;BME280;57706;56.326;43.882;2022-07-06T08:04:45;100523.53;;;43.95;17.62
70302;BME280;57706;56.326;43.882;2022-07-06T08:07:11;100519.78;;;44.90;16.44
70302;BME280;57706;56.326;43.882;2022-07-06T08:09:37;100532.50;;;46.21;15.63
70302;BME280;57706;56.326;43.882;2022-07-06T08:12:04;100528.66;;;46.64;15.39
70302;BME280;57706;56.326;43.882;2022-07-06T08:14:30;100528.41;;;46.93;15.19
70302;BME280;57706;56.326;43.882;2022-07-06T08:16:56;100520.41;;;49.29;13.73
70302;BME280;57706;56.326;43.882;2022-07-06T08:19:21;100525.53;;;50.25;13.09
70302;BME280;57706;56.326;43.882;2022-07-06T08:21:47;100513.44;;;52.31;11.75
70302;BME280;57706;56.326;43.882;2022-07-06T08:24:13;100512.75;;;50.90;12.35
70302;BME280;57706;56.326;43.882;2022-07-06T08:26:57;100520.13;;;50.51;12.84
70302;BME280;57706;56.326;43.882;2022-07-06T08:29:23;100502.50;;;51.72;12.22
70302;BME280;57706;56.326;43.882;2022-07-06T08:31:49;100505.84;;;52.19;11.78
70302;BME280;57706;56.326;43.882;2022-07-06T08:34:15;100501.13;;;52.99;11.47
70302;BME280;57706;56.326;43.882;2022-07-06T08:36:41;100498.59;;;53.15;11.15
70302;BME280;57706;56.326;43.882;2022-07-06T08:39:07;100502.81;;;52.13;11.80
70302;BME280;57706;56.326;43.882;2022-07-06T08:41:34;100509.78;;;52.70;11.58
70302;BME280;57706;56.326;43.882;2022-07-06T08:44:02;100503.19;;;54.82;10.36
70302;BME280;57706;56.326;43.882;2022-07-06T08:46:49;100499.69;;;54.21;10.50
70302;BME280;57706;56.326;43.882;2022-07-06T08:49:18;100499.91;;;53.86;10.64
70302;BME280;57706;56.326;43.882;2022-07-06T08:51:46;100501.53;;;52.53;11.91
70302;BME280;57706;56.326;43.882;2022-07-06T08:54:31;100495.34;;;51.29;12.58
70302;BME280;57706;56.326;43.882;2022-07-06T08:56:58;100509.66;;;51.73;12.49
70302;BME280;57706;56.326;43.882;2022-07-06T08:59:24;100495.31;;;52.23;12.15
70302;BME280;57706;56.326;43.882;2022-07-06T09:01:51;100497.66;;;52.95;11.49
70302;BME280;57706;56.326;43.882;2022-07-06T09:04:18;100501.78;;;52.81;11.65
70302;BME280;57706;56.326;43.882;2022-07-06T09:06:47;100500.84;;;52.84;11.29
70302;BME280;57706;56.326;43.882;2022-07-06T09:09:19;100487.97;;;52.74;11.54
70302;BME280;57706;56.326;43.882;2022-07-06T09:11:46;100492.59;;;53.03;11.52
70302;BME280;57706;56.326;43.882;2022-07-06T09:14:12;100488.47;;;52.59;11.64
70302;BME280;57706;56.326;43.882;2022-07-06T09:16:38;100493.75;;;49.04;14.06
70302;BME280;57706;56.326;43.882;2022-07-06T09:19:06;100501.34;;;49.44;13.76
70302;BME280;57706;56.326;43.882;2022-07-06T09:21:32;100494.16;;;51.56;12.15
70302;BME280;57706;56.326;43.882;2022-07-06T09:24:03;100491.84;;;51.80;11.94
70302;BME280;57706;56.326;43.882;2022-07-06T09:26:31;100488.91;;;51.45;12.65
70302;BME280;57706;56.326;43.882;2022-07-06T09:28:57;100489.25;;;52.95;10.98
70302;BME280;57706;56.326;43.882;2022-07-06T09:31:25;100486.56;;;51.69;12.27
70302;BME280;57706;56.326;43.882;2022-07-06T09:34:05;100484.63;;;53.24;11.44
70302;BME280;57706;56.326;43.882;2022-07-06T09:36:50;100473.13;;;52.64;11.25
70302;BME280;57706;56.326;43.882;2022-07-06T09:39:21;100481.84;;;52.44;11.75
70302;BME280;57706;56.326;43.882;2022-07-06T09:41:50;100483.41;;;51.67;12.12
70302;BME280;57706;56.326;43.882;2022-07-06T09:44:23;100475.84;;;51.81;11.70
70302;BME280;57706;56.326;43.882;2022-07-06T09:46:50;100467.84;;;51.66;11.82
70302;BME280;57706;56.326;43.882;2022-07-06T09:49:20;100480.41;;;51.61;12.23
70302;BME280;57706;56.326;43.882;2022-07-06T09:51:47;100468.81;;;50.28;12.56
70302;BME280;57706;56.326;43.882;2022-07-06T09:54:14;100461.13;;;49.01;13.84
70302;BME280;57706;56.326;43.882;2022-07-06T09:56:42;100457.09;;;49.26;13.62
70302;BME280;57706;56.326;43.882;2022-07-06T10:01:39;100457.63;;;51.33;12.23
70302;BME280;57706;56.326;43.882;2022-07-06T10:04:06;100457.31;;;51.31;12.27
70302;BME280;57706;56.326;43.882;2022-07-06T10:06:32;100462.03;;;51.60;12.02
70302;BME280;57706;56.326;43.882;2022-07-06T10:08:59;100459.72;;;50.07;13.11
70302;BME280;57706;56.326;43.882;2022-07-06T10:11:26;100454.53;;;51.96;11.87
70302;BME280;57706;56.326;43.882;2022-07-06T10:13:56;100454.44;;;52.83;11.45
70302;BME280;57706;56.326;43.882;2022-07-06T10:16:40;100452.03;;;52.95;11.27
70302;BME280;57706;56.326;43.882;2022-07-06T10:19:08;100438.94;;;54.05;10.90
70302;BME280;57706;56.326;43.882;2022-07-06T10:21:38;100443.38;;;53.75;10.90
70302;BME280;57706;56.326;43.882;2022-07-06T10:24:06;100434.44;;;51.33;12.50
70302;BME280;57706;56.326;43.882;2022-07-06T10:26:34;100442.66;;;51.66;12.61
70302;BME280;57706;56.326;43.882;2022-07-06T10:29:03;100447.91;;;53.40;11.10
70302;BME280;57706;56.326;43.882;2022-07-06T10:31:31;100446.47;;;51.46;11.57
70302;BME280;57706;56.326;43.882;2022-07-06T10:33:59;100434.00;;;52.25;11.56
70302;BME280;57706;56.326;43.882;2022-07-06T10:36:27;100438.00;;;53.49;11.09
70302;BME280;57706;56.326;43.882;2022-07-06T10:38:54;100434.44;;;53.58;10.62
70302;BME280;57706;56.326;43.882;2022-07-06T10:41:33;100436.19;;;53.74;10.72
70302;BME280;57706;56.326;43.882;2022-07-06T10:44:19;100425.34;;;53.85;10.28
70302;BME280;57706;56.326;43.882;2022-07-06T10:46:52;100423.72;;;51.31;12.20
70302;BME280;57706;56.326;43.882;2022-07-06T10:49:48;100427.31;;;51.71;11.90
70302;BME280;57706;56.326;43.882;2022-07-06T10:52:17;100425.78;;;52.44;11.57
70302;BME280;57706;56.326;43.882;2022-07-06T10:55:02;100426.91;;;51.72;11.86
70302;BME280;57706;56.326;43.882;2022-07-06T10:57:29;100420.41;;;44.92;16.98
70302;BME280;57706;56.326;43.882;2022-07-06T11:00:03;100430.81;;;45.77;16.02
70302;BME280;57706;56.326;43.882;2022-07-06T11:02:37;100415.91;;;48.94;13.60
70302;BME280;57706;56.326;43.882;2022-07-06T11:05:10;100421.72;;;47.18;14.75
70302;BME280;57706;56.326;43.882;2022-07-06T11:07:48;100430.53;;;47.12;14.88
70302;BME280;57706;56.326;43.882;2022-07-06T11:10:14;100429.22;;;45.76;15.66
70302;BME280;57706;56.326;43.882;2022-07-06T11:12:44;100424.44;;;49.80;12.86
70302;BME280;57706;56.326;43.882;2022-07-06T11:15:10;100415.44;;;51.93;11.49
70302;BME280;57706;56.326;43.882;2022-07-06T11:17:36;100411.00;;;54.02;10.10
70302;BME280;57706;56.326;43.882;2022-07-06T11:20:11;100407.41;;;50.87;12.15
70302;BME280;57706;56.326;43.882;2022-07-06T11:22:38;100414.38;;;46.62;14.83
70302;BME280;57706;56.326;43.882;2022-07-06T11:25:05;100422.97;;;48.30;13.71
70302;BME280;57706;56.326;43.882;2022-07-06T11:27:33;100414.50;;;50.29;12.50
70302;BME280;57706;56.326;43.882;2022-07-06T11:30:00;100412.09;;;50.31;12.28
70302;BME280;57706;56.326;43.882;2022-07-06T11:32:27;100392.47;;;51.07;11.77
70302;BME280;57706;56.326;43.882;2022-07-06T11:34:53;100406.59;;;49.57;12.63
70302;BME280;57706;56.326;43.882;2022-07-06T11:37:19;100399.31;;;47.32;14.34
70302;BME280;57706;56.326;43.882;2022-07-06T11:39:47;100402.56;;;46.50;14.79
70302;BME280;57706;56.326;43.882;2022-07-06T11:42:14;100397.38;;;49.03;13.45
70302;BME280;57706;56.326;43.882;2022-07-06T11:44:42;100401.19;;;51.09;11.96
70302;BME280;57706;56.326;43.882;2022-07-06T11:47:09;100390.50;;;51.46;11.84
70302;BME280;57706;56.326;43.882;2022-07-06T11:49:54;100392.31;;;45.01;16.28
70302;BME280;57706;56.326;43.882;2022-07-06T11:52:21;100386.78;;;47.17;14.85
70302;BME280;57706;56.326;43.882;2022-07-06T11:54:49;100392.00;;;48.01;14.22
70302;BME280;57706;56.326;43.882;2022-07-06T11:57:16;100387.00;;;46.11;15.87
70302;BME280;57706;56.326;43.882;2022-07-06T11:59:42;100393.75;;;45.42;15.69
70302;BME280;57706;56.326;43.882;2022-07-06T12:02:14;100370.16;;;49.48;12.79
70302;BME280;57706;56.326;43.882;2022-07-06T12:04:42;100373.47;;;51.80;10.52
70302;BME280;57706;56.326;43.882;2022-07-06T12:07:10;100373.53;;;52.15;10.83
70302;BME280;57706;56.326;43.882;2022-07-06T12:09:39;100379.09;;;46.97;14.29
70302;BME280;57706;56.326;43.882;2022-07-06T12:12:07;100381.91;;;43.45;17.10
70302;BME280;57706;56.326;43.882;2022-07-06T12:14:36;100375.72;;;44.07;16.70
70302;BME280;57706;56.326;43.882;2022-07-06T12:17:04;100380.84;;;42.00;18.59
70302;BME280;57706;56.326;43.882;2022-07-06T12:19:53;100370.75;;;45.45;15.82
70302;BME280;57706;56.326;43.882;2022-07-06T12:22:25;100376.38;;;46.90;15.01
70302;BME280;57706;56.326;43.882;2022-07-06T12:24:51;100379.19;;;45.20;16.19
70302;BME280;57706;56.326;43.882;2022-07-06T12:27:18;100370.06;;;43.49;17.59
70302;BME280;57706;56.326;43.882;2022-07-06T12:29:45;100376.66;;;42.10;19.01
70302;BME280;57706;56.326;43.882;2022-07-06T12:32:19;100369.44;;;44.28;16.88
70302;BME280;57706;56.326;43.882;2022-07-06T12:34:46;100370.41;;;45.29;16.48
70302;BME280;57706;56.326;43.882;2022-07-06T12:37:30;100364.00;;;48.59;14.10
70302;BME280;57706;56.326;43.882;2022-07-06T12:39:56;100358.66;;;50.88;12.52
70302;BME280;57706;56.326;43.882;2022-07-06T12:42:22;100358.50;;;48.96;13.62
70302;BME280;57706;56.326;43.882;2022-07-06T12:44:50;100357.34;;;49.14;13.36
70302;BME280;57706;56.326;43.882;2022-07-06T12:47:24;100352.88;;;49.37;13.32
70302;BME280;57706;56.326;43.882;2022-07-06T12:50:06;100345.41;;;47.22;15.28